createdAt,value
2018-06-30T00:00:18.333Z,6.50
2018-06-30T00:02:47.539Z,6.63
2018-06-30T00:05:17.236Z,6.40
2018-06-30T00:07:47.093Z,6.53
2018-06-30T00:10:24.304Z,6.67
2018-06-30T00:12:53.812Z,6.63
2018-06-30T00:15:23.144Z,6.47
2018-06-30T00:17:52.326Z,6.73
2018-06-30T00:20:20.945Z,6.13
2018-06-30T00:22:49.746Z,6.43
2018-06-30T00:25:18.465Z,7.00
2018-06-30T00:27:47.783Z,6.97
2018-06-30T00:30:16.586Z,7.10
2018-06-30T00:32:45.257Z,6.83
2018-06-30T00:35:14.714Z,7.10
2018-06-30T00:37:43.399Z,6.83
2018-06-30T00:40:12.105Z,7.07
2018-06-30T00:42:41.193Z,7.30
2018-06-30T00:45:10.760Z,7.13
2018-06-30T00:47:41.073Z,7.00
2018-06-30T00:50:09.771Z,7.27
2018-06-30T00:52:38.876Z,7.83
2018-06-30T00:55:08.509Z,6.27
2018-06-30T00:57:37.530Z,7.03
2018-06-30T01:00:06.955Z,7.10
2018-06-30T01:02:37.928Z,7.07
2018-06-30T01:05:07.111Z,7.73
2018-06-30T01:07:37.774Z,6.80
2018-06-30T01:10:07.550Z,7.23
2018-06-30T01:12:36.473Z,7.83
2018-06-30T01:15:05.333Z,7.77
2018-06-30T01:17:34.197Z,7.47
2018-06-30T01:20:02.967Z,7.23
2018-06-30T01:22:31.674Z,7.73
2018-06-30T01:25:01.833Z,7.23
2018-06-30T01:27:30.573Z,7.83
2018-06-30T01:29:59.933Z,7.60
2018-06-30T01:32:28.866Z,7.93
2018-06-30T01:34:58.206Z,7.80
2018-06-30T01:37:27.236Z,7.87
2018-06-30T01:39:56.980Z,7.93
2018-06-30T01:42:26.717Z,7.57
2018-06-30T01:44:55.658Z,7.10
2018-06-30T01:47:24.641Z,7.67
2018-06-30T01:49:53.441Z,8.03
2018-06-30T01:52:22.177Z,7.30
2018-06-30T01:54:51.978Z,8.07
2018-06-30T01:57:20.825Z,7.70
2018-06-30T01:59:50.203Z,8.60
2018-06-30T02:02:18.921Z,8.00
2018-06-30T02:04:47.605Z,7.83
2018-06-30T02:07:17.003Z,8.50
2018-06-30T02:09:45.965Z,9.03
2018-06-30T02:12:18.706Z,8.47
2018-06-30T02:14:48.074Z,8.43
2018-06-30T02:17:17.559Z,8.43
2018-06-30T02:19:46.257Z,8.10
2018-06-30T02:22:14.910Z,7.70
2018-06-30T02:24:43.955Z,8.30
2018-06-30T02:27:13.656Z,7.60
2018-06-30T02:29:42.902Z,9.37
2018-06-30T02:32:12.384Z,8.57
2018-06-30T02:34:41.059Z,8.70
2018-06-30T02:37:10.395Z,7.90
2018-06-30T02:39:39.098Z,7.97
2018-06-30T02:42:08.008Z,8.13
2018-06-30T02:44:37.211Z,9.60
2018-06-30T02:47:05.981Z,8.60
2018-06-30T02:49:34.934Z,8.13
2018-06-30T02:52:03.636Z,9.10
2018-06-30T02:54:33.260Z,8.87
2018-06-30T02:57:01.976Z,9.13
2018-06-30T02:59:30.645Z,8.83
2018-06-30T03:02:02.431Z,7.93
2018-06-30T03:04:31.116Z,9.87
2018-06-30T03:06:59.774Z,8.13
2018-06-30T03:09:28.666Z,8.50
2018-06-30T03:11:59.008Z,9.00
2018-06-30T03:14:27.822Z,8.90
2018-06-30T03:16:56.618Z,7.60
2018-06-30T03:19:25.681Z,7.90
2018-06-30T03:21:54.274Z,8.10
2018-06-30T03:24:22.964Z,9.03
2018-06-30T03:26:51.750Z,9.37
2018-06-30T03:29:20.624Z,9.00
2018-06-30T03:31:49.365Z,8.00
2018-06-30T03:34:18.056Z,8.80
2018-06-30T03:36:46.898Z,8.60
2018-06-30T03:39:16.014Z,8.17
2018-06-30T03:41:44.826Z,8.40
2018-06-30T03:44:13.590Z,8.83
2018-06-30T03:46:42.250Z,8.03
2018-06-30T03:49:11.225Z,8.73
2018-06-30T03:51:40.750Z,8.47
2018-06-30T03:54:09.782Z,7.70
2018-06-30T03:56:38.447Z,9.10
2018-06-30T03:59:07.074Z,8.27
2018-06-30T04:01:35.712Z,8.27
2018-06-30T04:04:05.211Z,8.47
2018-06-30T04:06:34.008Z,8.63
2018-06-30T04:09:02.738Z,8.63
2018-06-30T04:11:32.423Z,8.27
2018-06-30T04:14:01.826Z,7.70
2018-06-30T04:16:30.600Z,8.13
2018-06-30T04:19:03.581Z,8.97
2018-06-30T04:21:33.143Z,8.03
2018-06-30T04:24:02.812Z,7.77
2018-06-30T04:26:31.509Z,7.80
2018-06-30T04:29:00.660Z,8.43
2018-06-30T04:31:31.171Z,7.73
2018-06-30T04:33:59.836Z,7.33
2018-06-30T04:36:28.722Z,7.33
2018-06-30T04:38:57.360Z,7.20
2018-06-30T04:41:26.071Z,7.50
2018-06-30T04:43:54.770Z,8.00
2018-06-30T04:46:23.617Z,7.67
2018-06-30T04:48:52.425Z,7.40
2018-06-30T04:51:21.120Z,6.57
2018-06-30T04:53:49.800Z,7.00
2018-06-30T04:56:18.511Z,7.20
2018-06-30T04:58:47.176Z,9.40
2018-06-30T05:01:15.842Z,7.23
2018-06-30T05:03:44.527Z,7.10
2018-06-30T05:06:13.651Z,7.60
2018-06-30T05:08:42.814Z,7.00
2018-06-30T05:11:11.501Z,6.80
2018-06-30T05:13:40.174Z,6.27
2018-06-30T05:16:09.250Z,6.60
2018-06-30T05:18:38.011Z,6.77
2018-06-30T05:21:06.879Z,6.70
2018-06-30T05:23:36.277Z,5.10
2018-06-30T05:26:05.011Z,6.20
2018-06-30T05:28:33.674Z,6.17
2018-06-30T05:31:02.332Z,6.23
2018-06-30T05:33:31.038Z,6.07
2018-06-30T05:36:00.727Z,6.50
2018-06-30T05:38:29.839Z,6.17
2018-06-30T05:40:58.540Z,5.90
2018-06-30T05:43:27.269Z,5.97
2018-06-30T05:45:55.987Z,6.20
2018-06-30T05:48:25.446Z,5.73
2018-06-30T05:50:55.105Z,6.33
2018-06-30T05:53:23.894Z,6.13
2018-06-30T05:55:53.296Z,5.87
2018-06-30T05:58:21.955Z,5.57
2018-06-30T06:00:51.336Z,5.60
2018-06-30T06:03:20.095Z,5.30
2018-06-30T06:05:48.802Z,5.40
2018-06-30T06:08:17.848Z,5.53
2018-06-30T06:10:46.869Z,4.77
2018-06-30T06:13:15.505Z,4.93
2018-06-30T06:15:44.285Z,4.90
2018-06-30T06:18:13.545Z,4.93
2018-06-30T06:20:42.209Z,4.23
2018-06-30T06:23:11.494Z,4.27
2018-06-30T06:25:40.193Z,4.03
2018-06-30T06:28:09.168Z,4.30
2018-06-30T06:30:37.821Z,4.07
2018-06-30T06:33:07.085Z,3.50
2018-06-30T06:35:35.740Z,3.70
2018-06-30T06:38:04.389Z,3.00
2018-06-30T06:40:33.900Z,3.63
2018-06-30T06:43:02.602Z,3.60
2018-06-30T06:45:32.716Z,3.17
2018-06-30T06:48:01.366Z,3.23
2018-06-30T06:50:30.054Z,3.60
2018-06-30T06:52:58.872Z,3.17
2018-06-30T06:55:27.532Z,3.37
2018-06-30T06:57:56.159Z,3.20
2018-06-30T07:00:24.823Z,3.30
2018-06-30T07:02:53.483Z,2.77
2018-06-30T07:05:22.112Z,3.43
2018-06-30T07:07:50.709Z,3.23
2018-06-30T07:10:19.364Z,3.30
2018-06-30T07:12:48.007Z,3.27
2018-06-30T07:15:18.141Z,3.40
2018-06-30T07:17:46.850Z,2.80
2018-06-30T07:20:16.257Z,3.10
2018-06-30T07:22:45.938Z,2.70
2018-06-30T07:25:14.428Z,3.40
2018-06-30T07:27:43.168Z,3.30
2018-06-30T07:30:11.908Z,2.93
2018-06-30T07:32:40.564Z,2.83
2018-06-30T07:35:10.341Z,3.00
2018-06-30T07:37:40.487Z,2.90
2018-06-30T07:40:09.267Z,3.40
2018-06-30T07:42:44.008Z,3.00
2018-06-30T07:45:12.681Z,3.07
2018-06-30T07:47:41.522Z,2.93
2018-06-30T07:50:11.545Z,3.00
2018-06-30T07:52:40.248Z,3.37
2018-06-30T07:55:09.206Z,3.40
2018-06-30T07:57:38.018Z,2.77
2018-06-30T08:00:07.795Z,3.00
2018-06-30T08:02:37.246Z,3.20
2018-06-30T08:05:06.077Z,3.03
2018-06-30T08:07:37.237Z,3.20
2018-06-30T08:10:09.073Z,2.57
2018-06-30T08:12:37.843Z,3.07
2018-06-30T08:15:06.749Z,2.60
2018-06-30T08:17:35.546Z,2.77
2018-06-30T08:20:04.486Z,3.03
2018-06-30T08:22:33.320Z,3.07
2018-06-30T08:25:02.925Z,3.07
2018-06-30T08:27:33.454Z,2.90
2018-06-30T08:30:02.515Z,3.03
2018-06-30T08:32:31.217Z,2.70
2018-06-30T08:34:59.963Z,2.93
2018-06-30T08:37:28.981Z,2.67
2018-06-30T08:39:57.678Z,2.80
2018-06-30T08:42:38.616Z,3.20
2018-06-30T08:45:08.090Z,2.63
2018-06-30T08:47:37.452Z,2.77
2018-06-30T08:50:06.879Z,2.70
2018-06-30T08:52:35.503Z,2.60
2018-06-30T08:55:04.846Z,3.17
2018-06-30T08:57:34.366Z,3.27
2018-06-30T09:00:04.180Z,2.60
2018-06-30T09:02:32.940Z,2.53
2018-06-30T09:05:01.596Z,2.87
2018-06-30T09:07:30.402Z,2.63
2018-06-30T09:10:01.525Z,2.50
2018-06-30T09:12:31.061Z,2.60
2018-06-30T09:14:59.784Z,2.60
2018-06-30T09:17:29.655Z,2.97
2018-06-30T09:19:58.718Z,2.17
2018-06-30T09:22:30.870Z,2.77
2018-06-30T09:24:59.964Z,2.47
2018-06-30T09:27:28.698Z,1.97
2018-06-30T09:29:58.850Z,2.60
2018-06-30T09:32:28.844Z,1.90
2018-06-30T09:34:57.845Z,2.40
2018-06-30T09:37:26.688Z,1.83
2018-06-30T09:39:55.939Z,1.63
2018-06-30T09:42:24.685Z,2.23
2018-06-30T09:44:53.471Z,2.10
2018-06-30T09:47:23.617Z,2.20
2018-06-30T09:49:52.501Z,1.87
2018-06-30T09:52:24.021Z,1.90
2018-06-30T09:54:58.080Z,1.80
2018-06-30T09:57:26.831Z,1.90
2018-06-30T09:59:55.493Z,1.77
2018-06-30T10:02:24.195Z,2.00
2018-06-30T10:04:52.887Z,2.10
2018-06-30T10:07:24.393Z,1.70
2018-06-30T10:09:54.075Z,1.77
2018-06-30T10:12:22.767Z,1.90
2018-06-30T10:14:51.888Z,1.80
2018-06-30T10:17:20.743Z,1.70
2018-06-30T10:19:49.385Z,1.60
2018-06-30T10:22:18.053Z,1.87
2018-06-30T10:24:46.750Z,1.70
2018-06-30T10:27:15.807Z,1.30
2018-06-30T10:29:44.606Z,1.60
2018-06-30T10:32:13.257Z,1.53
2018-06-30T10:34:42.911Z,1.50
2018-06-30T10:37:11.560Z,1.60
2018-06-30T10:39:40.289Z,1.80
2018-06-30T10:42:09.009Z,1.57
2018-06-30T10:44:37.769Z,1.50
2018-06-30T10:47:06.615Z,1.40
2018-06-30T10:49:39.571Z,1.27
2018-06-30T10:52:08.324Z,2.67
2018-06-30T10:54:47.708Z,1.93
2018-06-30T10:57:18.543Z,1.47
2018-06-30T10:59:47.210Z,1.67
2018-06-30T11:02:15.857Z,1.20
2018-06-30T11:04:44.954Z,1.30
2018-06-30T11:07:13.773Z,1.03
2018-06-30T11:09:42.432Z,1.30
2018-06-30T11:12:11.078Z,1.17
2018-06-30T11:14:40.085Z,1.70
2018-06-30T11:17:09.212Z,1.00
2018-06-30T11:19:38.631Z,0.70
2018-06-30T11:22:07.319Z,1.37
2018-06-30T11:24:35.963Z,0.90
2018-06-30T11:27:04.817Z,0.73
2018-06-30T11:29:34.103Z,1.70
2018-06-30T11:32:02.745Z,1.00
2018-06-30T11:34:31.464Z,1.00
2018-06-30T11:37:00.199Z,0.80
2018-06-30T11:39:28.912Z,0.87
2018-06-30T11:41:58.029Z,0.70
2018-06-30T11:44:26.681Z,0.63
2018-06-30T11:46:55.443Z,0.67
2018-06-30T11:49:25.128Z,0.77
2018-06-30T11:51:53.860Z,0.50
2018-06-30T11:54:22.626Z,0.80
2018-06-30T11:56:51.271Z,0.93
2018-06-30T11:59:19.983Z,0.83
2018-06-30T12:01:49.654Z,0.60
2018-06-30T12:04:18.348Z,0.93
2018-06-30T12:06:48.028Z,0.80
2018-06-30T12:09:21.896Z,0.80
2018-06-30T12:11:54.243Z,1.13
2018-06-30T12:14:23.442Z,0.93
2018-06-30T12:17:06.156Z,0.80
2018-06-30T12:19:35.031Z,0.50
2018-06-30T12:22:04.034Z,0.53
2018-06-30T12:24:32.705Z,0.73
2018-06-30T12:27:01.365Z,0.40
2018-06-30T12:29:30.080Z,0.67
2018-06-30T12:31:58.704Z,0.83
2018-06-30T12:34:27.319Z,0.60
2018-06-30T12:36:56.678Z,1.13
2018-06-30T12:39:25.406Z,0.50
2018-06-30T12:41:54.027Z,0.40
2018-06-30T12:44:22.673Z,0.40
2018-06-30T12:46:52.028Z,0.60
2018-06-30T12:49:20.712Z,0.70
2018-06-30T12:51:49.376Z,0.73
2018-06-30T12:54:18.121Z,0.53
2018-06-30T12:56:47.171Z,0.77
2018-06-30T12:59:15.869Z,0.40
2018-06-30T13:01:44.525Z,0.47
2018-06-30T13:04:13.614Z,0.27
2018-06-30T13:06:42.284Z,0.50
2018-06-30T13:09:12.810Z,0.30
2018-06-30T13:11:42.567Z,0.50
2018-06-30T13:14:11.326Z,0.30
2018-06-30T13:16:41.561Z,0.40
2018-06-30T13:19:10.537Z,0.53
2018-06-30T13:21:39.210Z,0.60
2018-06-30T13:24:08.158Z,0.60
2018-06-30T13:26:37.135Z,0.30
2018-06-30T13:29:05.857Z,1.20
2018-06-30T13:31:34.579Z,0.30
2018-06-30T13:34:04.649Z,0.30
2018-06-30T13:36:34.388Z,0.50
2018-06-30T13:39:06.962Z,0.30
2018-06-30T13:41:35.667Z,0.50
2018-06-30T13:44:04.880Z,0.40
2018-06-30T13:46:34.341Z,0.47
2018-06-30T13:49:03.401Z,0.37
2018-06-30T13:51:32.110Z,0.50
2018-06-30T13:54:01.816Z,0.40
2018-06-30T13:56:30.580Z,1.23
2018-06-30T13:58:59.325Z,0.50
2018-06-30T14:01:27.994Z,1.03
2018-06-30T14:03:56.669Z,0.50
2018-06-30T14:06:25.634Z,0.40
2018-06-30T14:08:54.425Z,0.47
2018-06-30T14:11:23.246Z,0.30
2018-06-30T14:13:52.322Z,1.10
2018-06-30T14:16:20.969Z,0.60
2018-06-30T14:18:49.592Z,0.40
2018-06-30T14:21:18.325Z,0.87
2018-06-30T14:23:46.970Z,0.47
2018-06-30T14:26:15.587Z,0.30
2018-06-30T14:28:44.515Z,0.30
2018-06-30T14:31:13.766Z,0.37
2018-06-30T14:33:42.445Z,0.30
2018-06-30T14:36:11.085Z,0.40
2018-06-30T14:38:39.819Z,0.43
2018-06-30T14:41:08.550Z,0.70
2018-06-30T14:43:37.218Z,0.40
2018-06-30T14:46:06.207Z,0.20
2018-06-30T14:48:34.927Z,0.40
2018-06-30T14:51:04.306Z,0.30
2018-06-30T14:53:33.848Z,0.60
2018-06-30T14:56:02.689Z,0.40
2018-06-30T14:58:31.530Z,0.50
2018-06-30T15:01:00.226Z,0.67
2018-06-30T15:03:29.062Z,0.20
2018-06-30T15:05:58.170Z,0.40
2018-06-30T15:08:26.949Z,1.10
2018-06-30T15:10:56.713Z,0.40
2018-06-30T15:13:25.425Z,2.20
2018-06-30T15:15:54.866Z,0.40
2018-06-30T15:18:23.993Z,0.60
2018-06-30T15:20:54.440Z,0.33
2018-06-30T15:23:24.501Z,0.20
2018-06-30T15:25:53.226Z,2.20
2018-06-30T15:28:22.545Z,0.30
2018-06-30T15:30:52.880Z,1.03
2018-06-30T15:33:21.558Z,0.40
2018-06-30T15:35:50.407Z,0.40
2018-06-30T15:38:19.480Z,0.30
2018-06-30T15:40:48.184Z,0.30
2018-06-30T15:43:17.554Z,1.03
2018-06-30T15:45:47.057Z,0.37
2018-06-30T15:48:16.116Z,0.50
2018-06-30T15:50:45.395Z,0.53
2018-06-30T15:53:14.000Z,0.30
2018-06-30T15:55:43.179Z,0.33
2018-06-30T15:58:12.197Z,0.37
2018-06-30T16:00:41.060Z,0.37
2018-06-30T16:03:10.363Z,0.80
2018-06-30T16:05:40.575Z,0.57
2018-06-30T16:08:09.758Z,0.50
2018-06-30T16:10:39.526Z,1.07
2018-06-30T16:13:08.973Z,0.50
2018-06-30T16:15:37.655Z,0.60
2018-06-30T16:18:07.146Z,0.30
2018-06-30T16:20:36.469Z,0.40
2018-06-30T16:23:05.199Z,0.77
2018-06-30T16:25:34.371Z,0.50
2018-06-30T16:28:03.380Z,0.30
2018-06-30T16:30:32.221Z,0.70
2018-06-30T16:33:00.992Z,0.83
2018-06-30T16:35:29.697Z,0.60
2018-06-30T16:38:00.553Z,0.50
2018-06-30T16:40:29.231Z,0.70
2018-06-30T16:42:57.997Z,0.50
2018-06-30T16:45:26.749Z,1.50
2018-06-30T16:47:56.985Z,0.67
2018-06-30T16:50:27.045Z,0.40
2018-06-30T16:52:55.721Z,2.50
2018-06-30T16:55:24.398Z,1.10
2018-06-30T16:57:53.147Z,0.50
2018-06-30T17:00:22.271Z,0.40
2018-06-30T17:02:50.977Z,0.50
2018-06-30T17:05:19.690Z,0.40
2018-06-30T17:07:48.374Z,2.07
2018-06-30T17:10:17.192Z,0.33
2018-06-30T17:12:45.837Z,0.50
2018-06-30T17:15:14.468Z,0.60
2018-06-30T17:17:43.149Z,0.70
2018-06-30T17:20:11.897Z,1.23
2018-06-30T17:22:40.502Z,0.93
2018-06-30T17:25:09.248Z,0.83
2018-06-30T17:27:37.913Z,0.90
2018-06-30T17:30:06.684Z,0.60
2018-06-30T17:32:35.409Z,2.10
2018-06-30T17:35:04.137Z,1.67
2018-06-30T17:37:33.004Z,1.10
2018-06-30T17:40:01.790Z,0.63
2018-06-30T17:42:30.527Z,1.83
2018-06-30T17:44:59.173Z,0.80
2018-06-30T17:47:27.832Z,0.77
2018-06-30T17:49:56.433Z,0.73
2018-06-30T17:52:25.472Z,0.70
2018-06-30T17:54:54.108Z,0.80
2018-06-30T17:57:22.807Z,0.97
2018-06-30T17:59:51.542Z,0.47
2018-06-30T18:02:20.171Z,1.80
2018-06-30T18:04:48.799Z,0.70
2018-06-30T18:07:17.436Z,1.00
2018-06-30T18:09:46.157Z,0.50
2018-06-30T18:12:15.012Z,0.50
2018-06-30T18:14:43.667Z,0.40
2018-06-30T18:17:12.409Z,0.40
2018-06-30T18:19:41.046Z,0.50
2018-06-30T18:22:09.689Z,0.47
2018-06-30T18:24:38.330Z,0.33
2018-06-30T18:27:07.607Z,0.40
2018-06-30T18:29:36.254Z,0.50
2018-06-30T18:32:05.974Z,0.30
2018-06-30T18:34:34.650Z,0.53
2018-06-30T18:37:03.358Z,0.50
2018-06-30T18:39:31.994Z,0.40
2018-06-30T18:42:00.650Z,0.50
2018-06-30T18:44:29.379Z,0.40
2018-06-30T18:46:58.044Z,0.50
2018-06-30T18:49:26.730Z,0.77
2018-06-30T18:51:55.512Z,0.40
2018-06-30T18:54:24.202Z,0.40
2018-06-30T18:56:52.914Z,0.50
2018-06-30T18:59:21.639Z,0.40
2018-06-30T19:01:50.377Z,0.90
2018-06-30T19:04:19.058Z,0.30
2018-06-30T19:06:47.722Z,2.57
2018-06-30T19:09:16.389Z,0.50
2018-06-30T19:11:45.519Z,0.40
2018-06-30T19:14:14.245Z,0.43
2018-06-30T19:16:42.907Z,0.50
2018-06-30T19:19:11.527Z,0.33
2018-06-30T19:21:40.161Z,0.40
2018-06-30T19:24:08.812Z,0.53
2018-06-30T19:26:37.486Z,0.43
2018-06-30T19:29:06.211Z,0.30
2018-06-30T19:31:35.209Z,0.40
2018-06-30T19:34:03.904Z,0.43
2018-06-30T19:36:32.623Z,0.40
2018-06-30T19:39:01.230Z,0.40
2018-06-30T19:41:29.935Z,0.20
2018-06-30T19:43:58.617Z,0.30
2018-06-30T19:46:27.255Z,0.40
2018-06-30T19:48:55.888Z,0.30
2018-06-30T19:51:24.600Z,0.60
2018-06-30T19:53:53.240Z,0.40
2018-06-30T19:56:21.906Z,0.37
2018-06-30T19:58:50.542Z,0.40
2018-06-30T20:01:19.271Z,0.30
2018-06-30T20:03:48.063Z,0.47
2018-06-30T20:06:16.818Z,0.40
2018-06-30T20:08:45.487Z,2.90
2018-06-30T20:11:14.104Z,0.90
2018-06-30T20:13:42.756Z,0.50
2018-06-30T20:16:11.752Z,1.40
2018-06-30T20:18:40.603Z,0.40
2018-06-30T20:21:09.276Z,0.30
2018-06-30T20:23:37.961Z,0.60
2018-06-30T20:26:06.661Z,0.70
2018-06-30T20:28:35.650Z,0.40
2018-06-30T20:31:04.319Z,0.63
2018-06-30T20:33:33.782Z,0.40
2018-06-30T20:36:02.442Z,0.50
2018-06-30T20:38:31.128Z,0.87
2018-06-30T20:40:59.758Z,0.47
2018-06-30T20:43:28.432Z,0.47
2018-06-30T20:45:57.090Z,0.50
2018-06-30T20:48:25.717Z,0.40
2018-06-30T20:50:54.397Z,0.40
2018-06-30T20:53:23.034Z,0.40
2018-06-30T20:55:52.360Z,0.50
2018-06-30T20:58:21.021Z,0.53
2018-06-30T21:00:49.714Z,0.43
2018-06-30T21:03:18.364Z,0.27
2018-06-30T21:05:47.331Z,0.40
2018-06-30T21:08:16.131Z,0.60
2018-06-30T21:10:44.714Z,0.60
2018-06-30T21:13:14.378Z,0.30
2018-06-30T21:15:43.252Z,0.23
2018-06-30T21:18:11.995Z,0.40
2018-06-30T21:20:40.973Z,0.40
2018-06-30T21:23:09.691Z,0.37
2018-06-30T21:25:38.289Z,0.40
2018-06-30T21:28:07.086Z,0.60
2018-06-30T21:30:35.944Z,0.60
2018-06-30T21:33:04.658Z,1.07
2018-06-30T21:35:33.428Z,3.57
2018-06-30T21:38:02.100Z,0.50
2018-06-30T21:40:30.863Z,0.40
2018-06-30T21:42:59.696Z,0.60
2018-06-30T21:45:28.454Z,0.70
2018-06-30T21:47:57.336Z,0.60
2018-06-30T21:50:26.106Z,0.50
2018-06-30T21:52:54.771Z,0.60
2018-06-30T21:55:23.500Z,0.67
2018-06-30T21:57:52.232Z,0.50
2018-06-30T22:00:30.370Z,0.73
2018-06-30T22:02:59.020Z,0.70
2018-06-30T22:05:27.740Z,0.63
2018-06-30T22:07:56.439Z,0.60
2018-06-30T22:10:25.164Z,0.83
2018-06-30T22:12:53.854Z,0.70
2018-06-30T22:15:22.584Z,0.43
2018-06-30T22:17:51.272Z,0.67
2018-06-30T22:20:19.907Z,0.43
2018-06-30T22:22:48.593Z,0.70
2018-06-30T22:25:17.271Z,0.60
2018-06-30T22:27:45.939Z,0.90
2018-06-30T22:30:14.590Z,0.80
2018-06-30T22:32:43.205Z,0.77
2018-06-30T22:35:11.897Z,1.07
2018-06-30T22:37:40.512Z,1.20
2018-06-30T22:40:16.024Z,0.80
2018-06-30T22:42:45.365Z,0.70
2018-06-30T22:45:14.387Z,0.60
2018-06-30T22:47:43.247Z,0.53
2018-06-30T22:50:12.128Z,0.50
2018-06-30T22:52:40.736Z,0.83
2018-06-30T22:55:09.388Z,1.00
2018-06-30T22:57:38.020Z,0.80
2018-06-30T23:00:09.414Z,0.93
2018-06-30T23:02:38.310Z,0.90
2018-06-30T23:05:07.581Z,0.60
2018-06-30T23:07:36.342Z,0.70
2018-06-30T23:10:05.155Z,1.20
2018-06-30T23:12:33.842Z,0.60
2018-06-30T23:15:02.538Z,0.63
2018-06-30T23:17:31.201Z,0.60
2018-06-30T23:19:59.863Z,0.80
2018-06-30T23:23:04.115Z,0.57
2018-06-30T23:25:33.402Z,0.93
2018-06-30T23:28:02.375Z,0.90
2018-06-30T23:30:31.557Z,0.57
2018-06-30T23:33:00.781Z,0.70
2018-06-30T23:35:31.149Z,0.70
2018-06-30T23:38:00.501Z,0.83
2018-06-30T23:40:29.223Z,0.80
2018-06-30T23:42:57.894Z,0.90
2018-06-30T23:45:26.562Z,0.60
2018-06-30T23:47:55.509Z,0.60
2018-06-30T23:50:24.508Z,0.67
2018-06-30T23:52:53.197Z,1.77
2018-06-30T23:55:21.860Z,0.67
2018-06-30T23:57:50.527Z,1.03
